Cardiff, California
Current Conditions -  °F | °C
As of 10:53 AM on Thursday 30 Oct 2014 (Local Time) from KCRQ Reporting Station
Clear Clear  
Wind Chill: 73°   Ceiling: Unl
Heat Index: 73°   Visibility: 10mi
Dew Point: 52°   Wind: 3mph
Humidity: 48%   Direction: NA
Pressure: 29.99"   Gusts: NA
Location:  33.0233°N, 117.276°W
Report Text: KCRQ 301753Z AUTO VRB03KT 10SM CLR 23/11 A2999 RMK AO2 SLP152 T02280111 10228 20144 50005
Loading
Personal Weather Stations






























Interactive Weather Map
Tropical Storm Tracking
New forecast layout! Learn more

10-Day Weather Forecast

Advertisements
Track Severe Weather on mobile